• Join FlightAware (Why Join?)
  • Login
  • US Flag 
07:51AM EDT


 

Airport Tracker/Info


-or-


 

Live Flight TrackerFlight Track Log ✈ UAL4788 ✈ 18-Jun-2013 ✈ KFNT - KCLE

Flight Track Log - Related Links

Times and Time Zones

All times are in EDT time to prevent confusion due to time zone crossing. See the UAL4788 flight status page for this flight to view local times or setup timezone preferences in your user account.

Time Position Orientation Groundspeed Altitude Reporting Facility
EDT Latitude Longitude Course Direction KTS MPH feet Rate Location/Type
06:01AM 42.9667 -83.6872 100° East 127 146 2,600  Level Cleveland Center
06:02AM 42.9578 -83.6300 102° East 164 189 3,600 1,200 Climbing Cleveland Center
06:03AM 42.9531 -83.5644 96° East 186 214 4,900 660 Climbing Cleveland Center
06:04AM 42.9131 -83.5031 132° Southeast 238 274 5,000  Climbing Cleveland Center
06:05AM 42.8564 -83.4325 138° Southeast 262 302 5,000  Level Cleveland Center
06:06AM 42.8039 -83.3650 137° Southeast 260 299 5,000  Level Cleveland Center
06:07AM 42.6882 -83.3975 100° East  Level Estimated
06:07AM 42.7633 -83.3181 140° Southeast 257 296 5,000  Level Cleveland Center
06:08AM 42.7167 -83.2594 137° Southeast 246 283 6,000 960 Climbing Cleveland Center
06:09AM 42.6700 -83.2008 137° Southeast 222 255 6,900 420 Climbing Cleveland Center
06:10AM 42.6153 -83.1308 137° Southeast 253 291 7,000  Climbing Cleveland Center
06:11AM 42.5606 -83.0639 138° Southeast 261 300 7,000  Level Cleveland Center
06:12AM 42.5158 -83.0114 139° Southeast 264 304 7,000  Level Cleveland Center
06:14AM 42.4161 -82.8922 139° Southeast 298 343 7,000  Level Cleveland Center
06:15AM 42.3614 -82.8200 136° Southeast 291 335 7,000  Level Cleveland Center
06:16AM 42.3064 -82.7533 138° Southeast 279 321 7,000  Level Cleveland Center
06:17AM 42.2450 -82.6811 139° Southeast 279 321 7,000  Level Cleveland Center
06:17AM 42.2064 -82.6322 137° Southeast 268 308 7,000  Level Cleveland Center
06:18AM 42.1511 -82.5689 140° Southeast 266 306 7,000  Level Cleveland Center
06:19AM 42.0981 -82.5028 137° Southeast 271 312 7,000  Level Cleveland Center
06:20AM 42.0408 -82.4342 138° Southeast 270 311 7,000  Level Cleveland Center
06:21AM 41.9775 -82.3622 140° Southeast 275 316 7,000  Level Cleveland Center
06:22AM 41.9222 -82.2939 137° Southeast 274 315 7,000  Level Cleveland Center
06:24AM 41.8586 -82.2169 138° Southeast 278 320 7,000  Level Cleveland Center
06:25AM 41.7886 -82.1511 145° Southeast 279 321 7,000  Level Cleveland Center
06:26AM 41.7350 -82.1081 149° Southeast 276 318 7,000  Level Cleveland Center
06:27AM 41.6650 -82.0508 149° Southeast 274 315 7,000  Level Cleveland Center
06:28AM 41.5969 -81.9964 149° Southeast 271 312 7,000  Level Cleveland Center
06:29AM 41.5392 -81.9508 149° Southeast 247 284 7,000  Level Cleveland Center
06:30AM 41.4869 -81.9581 186° South 191 220 7,000  Level Cleveland Center
06:31AM 41.4508 -82.0125 229° Southwest 203 234 7,000  Level Cleveland Center
06:32AM 41.4125 -82.0644 225° Southwest 202 232 7,000  Level Cleveland Center
06:33AM 41.3764 -82.1217 230° Southwest 197 227 7,000  Level Cleveland Center
06:34AM 41.3317 -82.1786 224° Southwest 199 229 7,000  Level Cleveland Center
06:35AM 41.2881 -82.1831 184° South 219 252 7,000 -360 Level Cleveland Center
06:36AM 41.2428 -82.1239 135° Southeast 227 261 6,400 -1,080 Descending Cleveland Center
06:37AM 41.2750 -82.0639 54° Northeast 213 245 4,900 -1,500 Descending Cleveland Center
06:38AM 41.3089 -82.0122 49° Northeast 187 215 3,400 -1,260 Descending Cleveland Center
06:39AM 41.3408 -81.9633 49° Northeast 169 194 2,400 -960 Descending Cleveland Center
06:40AM 41.3725 -81.9197 46° Northeast 172 198 1,500 -900 Descending Cleveland Center